sensor_id;sensor_type;location;lat;lon;timestamp;P1;durP1;ratioP1;P2;durP2;ratioP2
36241;SDS011;22283;42.748;12.732;2023-03-14T00:00:57;9.75;;;3.00;;
36241;SDS011;22283;42.748;12.732;2023-03-14T00:06:01;11.40;;;2.87;;
36241;SDS011;22283;42.748;12.732;2023-03-14T00:11:10;11.02;;;3.00;;
36241;SDS011;22283;42.748;12.732;2023-03-14T00:16:13;12.68;;;2.63;;
36241;SDS011;22283;42.748;12.732;2023-03-14T00:21:14;12.73;;;2.43;;
36241;SDS011;22283;42.748;12.732;2023-03-14T00:26:16;9.05;;;3.25;;
36241;SDS011;22283;42.748;12.732;2023-03-14T00:31:18;7.53;;;2.10;;
36241;SDS011;22283;42.748;12.732;2023-03-14T00:36:19;6.53;;;2.43;;
36241;SDS011;22283;42.748;12.732;2023-03-14T00:41:22;9.35;;;2.92;;
36241;SDS011;22283;42.748;12.732;2023-03-14T00:46:23;8.70;;;2.55;;
36241;SDS011;22283;42.748;12.732;2023-03-14T00:51:23;11.50;;;2.57;;
36241;SDS011;22283;42.748;12.732;2023-03-14T00:56:24;10.37;;;2.77;;
36241;SDS011;22283;42.748;12.732;2023-03-14T01:01:25;6.93;;;2.03;;
36241;SDS011;22283;42.748;12.732;2023-03-14T01:06:26;8.73;;;2.07;;
36241;SDS011;22283;42.748;12.732;2023-03-14T01:11:32;8.38;;;2.67;;
36241;SDS011;22283;42.748;12.732;2023-03-14T01:16:34;8.80;;;2.30;;
36241;SDS011;22283;42.748;12.732;2023-03-14T01:21:35;7.27;;;2.07;;
36241;SDS011;22283;42.748;12.732;2023-03-14T01:26:38;8.48;;;2.47;;
36241;SDS011;22283;42.748;12.732;2023-03-14T01:31:40;10.18;;;2.70;;
36241;SDS011;22283;42.748;12.732;2023-03-14T01:36:41;8.07;;;2.33;;
36241;SDS011;22283;42.748;12.732;2023-03-14T01:41:42;6.30;;;2.25;;
36241;SDS011;22283;42.748;12.732;2023-03-14T01:46:44;8.33;;;2.90;;
36241;SDS011;22283;42.748;12.732;2023-03-14T01:56:59;6.70;;;2.15;;
36241;SDS011;22283;42.748;12.732;2023-03-14T02:02:23;7.15;;;2.00;;
36241;SDS011;22283;42.748;12.732;2023-03-14T02:12:48;10.80;;;2.17;;
36241;SDS011;22283;42.748;12.732;2023-03-14T02:18:09;7.50;;;1.50;;
36241;SDS011;22283;42.748;12.732;2023-03-14T02:23:22;4.82;;;1.50;;
36241;SDS011;22283;42.748;12.732;2023-03-14T02:28:32;9.50;;;1.70;;
36241;SDS011;22283;42.748;12.732;2023-03-14T02:33:35;4.40;;;1.80;;
36241;SDS011;22283;42.748;12.732;2023-03-14T02:44:01;4.50;;;2.10;;
36241;SDS011;22283;42.748;12.732;2023-03-14T02:49:04;6.67;;;1.53;;
36241;SDS011;22283;42.748;12.732;2023-03-14T02:54:08;9.80;;;1.80;;
36241;SDS011;22283;42.748;12.732;2023-03-14T02:59:09;6.05;;;1.60;;
36241;SDS011;22283;42.748;12.732;2023-03-14T03:04:23;7.18;;;1.63;;
36241;SDS011;22283;42.748;12.732;2023-03-14T03:09:24;9.60;;;2.70;;
36241;SDS011;22283;42.748;12.732;2023-03-14T03:14:26;4.65;;;1.85;;
36241;SDS011;22283;42.748;12.732;2023-03-14T03:19:30;8.75;;;2.00;;
36241;SDS011;22283;42.748;12.732;2023-03-14T03:24:31;13.88;;;2.78;;
36241;SDS011;22283;42.748;12.732;2023-03-14T03:29:32;10.43;;;2.03;;
36241;SDS011;22283;42.748;12.732;2023-03-14T03:34:33;7.35;;;1.98;;
36241;SDS011;22283;42.748;12.732;2023-03-14T03:39:34;6.70;;;2.13;;
36241;SDS011;22283;42.748;12.732;2023-03-14T03:44:35;5.30;;;1.63;;
36241;SDS011;22283;42.748;12.732;2023-03-14T03:49:36;4.32;;;1.33;;
36241;SDS011;22283;42.748;12.732;2023-03-14T03:54:37;2.92;;;1.30;;
36241;SDS011;22283;42.748;12.732;2023-03-14T03:59:37;8.33;;;1.60;;
36241;SDS011;22283;42.748;12.732;2023-03-14T04:04:40;7.85;;;1.83;;
36241;SDS011;22283;42.748;12.732;2023-03-14T04:09:41;16.43;;;2.67;;
36241;SDS011;22283;42.748;12.732;2023-03-14T04:14:56;5.93;;;1.33;;
36241;SDS011;22283;42.748;12.732;2023-03-14T04:19:56;5.10;;;1.63;;
36241;SDS011;22283;42.748;12.732;2023-03-14T04:25:06;6.53;;;1.70;;
36241;SDS011;22283;42.748;12.732;2023-03-14T04:30:11;8.60;;;1.92;;
36241;SDS011;22283;42.748;12.732;2023-03-14T04:35:27;11.35;;;2.58;;
36241;SDS011;22283;42.748;12.732;2023-03-14T04:40:36;6.70;;;1.70;;
36241;SDS011;22283;42.748;12.732;2023-03-14T04:45:43;5.03;;;1.50;;
36241;SDS011;22283;42.748;12.732;2023-03-14T04:50:46;8.45;;;2.15;;
36241;SDS011;22283;42.748;12.732;2023-03-14T04:55:51;6.63;;;1.60;;
36241;SDS011;22283;42.748;12.732;2023-03-14T05:00:54;5.43;;;1.67;;
36241;SDS011;22283;42.748;12.732;2023-03-14T05:06:12;9.98;;;1.85;;
36241;SDS011;22283;42.748;12.732;2023-03-14T05:11:48;6.65;;;1.65;;
36241;SDS011;22283;42.748;12.732;2023-03-14T05:17:04;9.40;;;1.77;;
36241;SDS011;22283;42.748;12.732;2023-03-14T05:22:14;8.82;;;1.50;;
36241;SDS011;22283;42.748;12.732;2023-03-14T05:27:37;6.20;;;1.75;;
36241;SDS011;22283;42.748;12.732;2023-03-14T05:32:56;6.28;;;1.50;;
36241;SDS011;22283;42.748;12.732;2023-03-14T05:38:16;6.75;;;1.60;;
36241;SDS011;22283;42.748;12.732;2023-03-14T05:43:37;6.60;;;1.92;;
36241;SDS011;22283;42.748;12.732;2023-03-14T05:49:00;5.70;;;1.85;;
36241;SDS011;22283;42.748;12.732;2023-03-14T05:54:16;9.45;;;1.83;;
36241;SDS011;22283;42.748;12.732;2023-03-14T05:59:39;8.35;;;1.90;;
36241;SDS011;22283;42.748;12.732;2023-03-14T06:05:09;9.43;;;1.98;;
36241;SDS011;22283;42.748;12.732;2023-03-14T06:10:10;4.82;;;1.98;;
36241;SDS011;22283;42.748;12.732;2023-03-14T06:15:12;9.05;;;1.92;;
36241;SDS011;22283;42.748;12.732;2023-03-14T06:20:13;8.63;;;1.50;;
36241;SDS011;22283;42.748;12.732;2023-03-14T06:25:15;10.18;;;2.10;;
36241;SDS011;22283;42.748;12.732;2023-03-14T06:30:19;5.53;;;1.73;;
36241;SDS011;22283;42.748;12.732;2023-03-14T06:35:21;7.30;;;1.83;;
36241;SDS011;22283;42.748;12.732;2023-03-14T06:40:22;7.38;;;1.92;;
36241;SDS011;22283;42.748;12.732;2023-03-14T06:45:34;9.98;;;1.80;;
36241;SDS011;22283;42.748;12.732;2023-03-14T06:50:36;8.05;;;2.10;;
36241;SDS011;22283;42.748;12.732;2023-03-14T06:55:38;7.60;;;1.90;;
36241;SDS011;22283;42.748;12.732;2023-03-14T07:00:39;8.43;;;2.08;;
36241;SDS011;22283;42.748;12.732;2023-03-14T07:05:40;36.70;;;2.90;;
36241;SDS011;22283;42.748;12.732;2023-03-14T07:10:43;10.52;;;2.13;;
36241;SDS011;22283;42.748;12.732;2023-03-14T07:15:44;17.20;;;2.88;;
36241;SDS011;22283;42.748;12.732;2023-03-14T07:20:45;24.15;;;2.55;;
36241;SDS011;22283;42.748;12.732;2023-03-14T07:25:48;8.55;;;2.17;;
36241;SDS011;22283;42.748;12.732;2023-03-14T07:30:51;7.95;;;2.13;;
36241;SDS011;22283;42.748;12.732;2023-03-14T07:35:59;11.90;;;2.08;;
36241;SDS011;22283;42.748;12.732;2023-03-14T07:41:00;6.07;;;1.65;;
36241;SDS011;22283;42.748;12.732;2023-03-14T07:46:03;144.45;;;10.40;;
36241;SDS011;22283;42.748;12.732;2023-03-14T07:51:04;37.40;;;3.95;;
36241;SDS011;22283;42.748;12.732;2023-03-14T07:56:05;17.70;;;2.60;;
36241;SDS011;22283;42.748;12.732;2023-03-14T08:01:06;11.80;;;1.50;;
36241;SDS011;22283;42.748;12.732;2023-03-14T08:06:07;12.00;;;1.98;;
36241;SDS011;22283;42.748;12.732;2023-03-14T08:11:08;7.77;;;1.50;;
36241;SDS011;22283;42.748;12.732;2023-03-14T08:16:09;3.95;;;1.45;;
36241;SDS011;22283;42.748;12.732;2023-03-14T08:21:09;6.50;;;1.70;;
36241;SDS011;22283;42.748;12.732;2023-03-14T08:26:10;6.60;;;1.67;;
36241;SDS011;22283;42.748;12.732;2023-03-14T08:31:11;17.13;;;2.80;;
36241;SDS011;22283;42.748;12.732;2023-03-14T08:36:12;4.03;;;1.50;;
36241;SDS011;22283;42.748;12.732;2023-03-14T08:41:12;8.83;;;2.07;;
36241;SDS011;22283;42.748;12.732;2023-03-14T08:46:13;7.97;;;1.70;;
36241;SDS011;22283;42.748;12.732;2023-03-14T08:51:14;8.13;;;1.93;;
36241;SDS011;22283;42.748;12.732;2023-03-14T08:56:14;7.03;;;1.58;;
36241;SDS011;22283;42.748;12.732;2023-03-14T09:01:15;3.57;;;1.27;;
36241;SDS011;22283;42.748;12.732;2023-03-14T09:06:16;12.65;;;1.80;;
36241;SDS011;22283;42.748;12.732;2023-03-14T09:11:18;6.97;;;1.35;;
36241;SDS011;22283;42.748;12.732;2023-03-14T09:16:19;11.48;;;2.35;;
36241;SDS011;22283;42.748;12.732;2023-03-14T09:21:20;5.90;;;1.57;;
36241;SDS011;22283;42.748;12.732;2023-03-14T09:26:21;5.78;;;1.58;;
36241;SDS011;22283;42.748;12.732;2023-03-14T09:31:22;7.90;;;2.03;;
36241;SDS011;22283;42.748;12.732;2023-03-14T09:36:22;4.03;;;1.53;;
36241;SDS011;22283;42.748;12.732;2023-03-14T09:41:24;6.50;;;1.83;;
36241;SDS011;22283;42.748;12.732;2023-03-14T09:46:31;19.02;;;2.67;;
36241;SDS011;22283;42.748;12.732;2023-03-14T09:51:35;13.63;;;2.35;;
36241;SDS011;22283;42.748;12.732;2023-03-14T09:56:42;10.70;;;2.20;;
36241;SDS011;22283;42.748;12.732;2023-03-14T10:01:43;9.95;;;2.17;;
36241;SDS011;22283;42.748;12.732;2023-03-14T10:06:44;12.18;;;2.60;;
36241;SDS011;22283;42.748;12.732;2023-03-14T10:11:45;12.13;;;2.38;;
36241;SDS011;22283;42.748;12.732;2023-03-14T10:16:46;11.77;;;2.58;;
36241;SDS011;22283;42.748;12.732;2023-03-14T10:21:50;6.75;;;2.10;;
36241;SDS011;22283;42.748;12.732;2023-03-14T10:26:54;16.20;;;4.78;;
36241;SDS011;22283;42.748;12.732;2023-03-14T10:32:02;18.13;;;3.80;;
36241;SDS011;22283;42.748;12.732;2023-03-14T10:37:06;12.43;;;2.42;;
36241;SDS011;22283;42.748;12.732;2023-03-14T10:42:26;12.90;;;3.35;;
36241;SDS011;22283;42.748;12.732;2023-03-14T10:47:32;18.27;;;3.00;;
36241;SDS011;22283;42.748;12.732;2023-03-14T10:52:33;15.07;;;2.38;;
36241;SDS011;22283;42.748;12.732;2023-03-14T10:57:38;14.90;;;4.43;;
36241;SDS011;22283;42.748;12.732;2023-03-14T11:02:53;10.25;;;3.08;;
36241;SDS011;22283;42.748;12.732;2023-03-14T11:23:56;11.07;;;4.35;;
36241;SDS011;22283;42.748;12.732;2023-03-14T11:29:08;12.85;;;2.50;;
36241;SDS011;22283;42.748;12.732;2023-03-14T11:34:26;10.00;;;3.30;;
36241;SDS011;22283;42.748;12.732;2023-03-14T11:40:14;12.32;;;2.75;;
36241;SDS011;22283;42.748;12.732;2023-03-14T11:44:56;14.55;;;3.92;;
36241;SDS011;22283;42.748;12.732;2023-03-14T11:55:19;10.45;;;3.63;;
36241;SDS011;22283;42.748;12.732;2023-03-14T12:00:26;13.02;;;3.75;;
36241;SDS011;22283;42.748;12.732;2023-03-14T12:15:59;14.25;;;3.67;;
36241;SDS011;22283;42.748;12.732;2023-03-14T12:21:04;14.00;;;3.72;;
36241;SDS011;22283;42.748;12.732;2023-03-14T12:36:55;14.02;;;3.53;;
36241;SDS011;22283;42.748;12.732;2023-03-14T12:42:03;11.23;;;3.08;;
36241;SDS011;22283;42.748;12.732;2023-03-14T12:52:19;11.30;;;3.50;;
36241;SDS011;22283;42.748;12.732;2023-03-14T12:57:48;13.98;;;3.10;;
36241;SDS011;22283;42.748;12.732;2023-03-14T13:03:12;13.15;;;3.10;;
36241;SDS011;22283;42.748;12.732;2023-03-14T13:08:40;14.35;;;3.97;;
36241;SDS011;22283;42.748;12.732;2023-03-14T13:13:51;13.95;;;3.00;;
36241;SDS011;22283;42.748;12.732;2023-03-14T13:19:01;12.63;;;3.28;;
36241;SDS011;22283;42.748;12.732;2023-03-14T13:24:05;13.02;;;2.97;;
36241;SDS011;22283;42.748;12.732;2023-03-14T13:34:20;12.07;;;3.63;;
36241;SDS011;22283;42.748;12.732;2023-03-14T13:39:22;9.10;;;3.42;;
36241;SDS011;22283;42.748;12.732;2023-03-14T13:44:27;9.93;;;3.28;;
36241;SDS011;22283;42.748;12.732;2023-03-14T13:49:34;11.68;;;3.30;;
36241;SDS011;22283;42.748;12.732;2023-03-14T13:54:38;11.65;;;3.95;;
36241;SDS011;22283;42.748;12.732;2023-03-14T13:59:38;13.32;;;2.75;;
36241;SDS011;22283;42.748;12.732;2023-03-14T14:04:39;14.43;;;2.90;;
36241;SDS011;22283;42.748;12.732;2023-03-14T14:09:41;10.10;;;2.88;;
36241;SDS011;22283;42.748;12.732;2023-03-14T14:14:46;13.35;;;4.65;;
36241;SDS011;22283;42.748;12.732;2023-03-14T14:19:50;8.98;;;3.25;;
36241;SDS011;22283;42.748;12.732;2023-03-14T14:24:53;8.73;;;2.92;;
36241;SDS011;22283;42.748;12.732;2023-03-14T14:29:58;12.38;;;3.88;;
36241;SDS011;22283;42.748;12.732;2023-03-14T14:35:23;10.50;;;3.10;;
36241;SDS011;22283;42.748;12.732;2023-03-14T14:40:34;8.23;;;3.67;;
36241;SDS011;22283;42.748;12.732;2023-03-14T14:45:43;16.02;;;7.75;;
36241;SDS011;22283;42.748;12.732;2023-03-14T14:55:49;14.77;;;4.33;;
36241;SDS011;22283;42.748;12.732;2023-03-14T15:00:53;15.50;;;4.65;;
36241;SDS011;22283;42.748;12.732;2023-03-14T15:06:00;13.52;;;3.38;;
36241;SDS011;22283;42.748;12.732;2023-03-14T15:11:02;10.77;;;3.13;;
36241;SDS011;22283;42.748;12.732;2023-03-14T15:16:04;9.90;;;3.10;;
36241;SDS011;22283;42.748;12.732;2023-03-14T15:21:12;12.98;;;3.60;;
36241;SDS011;22283;42.748;12.732;2023-03-14T15:26:13;9.70;;;3.77;;
36241;SDS011;22283;42.748;12.732;2023-03-14T15:31:17;8.63;;;3.13;;
36241;SDS011;22283;42.748;12.732;2023-03-14T15:41:23;7.80;;;3.40;;
36241;SDS011;22283;42.748;12.732;2023-03-14T15:46:24;4.77;;;2.30;;
36241;SDS011;22283;42.748;12.732;2023-03-14T15:51:24;13.63;;;3.73;;
36241;SDS011;22283;42.748;12.732;2023-03-14T15:56:25;15.80;;;3.47;;
36241;SDS011;22283;42.748;12.732;2023-03-14T16:01:28;11.45;;;3.40;;
36241;SDS011;22283;42.748;12.732;2023-03-14T16:06:28;10.80;;;2.80;;
36241;SDS011;22283;42.748;12.732;2023-03-14T16:11:30;5.72;;;2.70;;
36241;SDS011;22283;42.748;12.732;2023-03-14T16:16:31;16.20;;;5.83;;
36241;SDS011;22283;42.748;12.732;2023-03-14T16:21:32;18.57;;;7.77;;
36241;SDS011;22283;42.748;12.732;2023-03-14T16:26:33;30.92;;;4.72;;
36241;SDS011;22283;42.748;12.732;2023-03-14T16:31:35;27.92;;;14.35;;
36241;SDS011;22283;42.748;12.732;2023-03-14T16:36:42;18.73;;;8.68;;
36241;SDS011;22283;42.748;12.732;2023-03-14T16:41:43;14.30;;;6.80;;
36241;SDS011;22283;42.748;12.732;2023-03-14T16:46:43;18.33;;;8.35;;
36241;SDS011;22283;42.748;12.732;2023-03-14T16:51:44;20.73;;;8.90;;
36241;SDS011;22283;42.748;12.732;2023-03-14T16:56:45;8.13;;;2.93;;
36241;SDS011;22283;42.748;12.732;2023-03-14T17:01:47;3.95;;;2.35;;
36241;SDS011;22283;42.748;12.732;2023-03-14T17:06:49;7.75;;;2.20;;
36241;SDS011;22283;42.748;12.732;2023-03-14T17:11:50;5.68;;;2.40;;
36241;SDS011;22283;42.748;12.732;2023-03-14T17:16:51;12.20;;;4.93;;
36241;SDS011;22283;42.748;12.732;2023-03-14T17:21:53;7.65;;;2.75;;
36241;SDS011;22283;42.748;12.732;2023-03-14T17:26:53;11.67;;;5.87;;
36241;SDS011;22283;42.748;12.732;2023-03-14T17:31:54;7.50;;;3.10;;
36241;SDS011;22283;42.748;12.732;2023-03-14T17:36:54;7.80;;;3.83;;
36241;SDS011;22283;42.748;12.732;2023-03-14T17:41:55;9.87;;;5.70;;
36241;SDS011;22283;42.748;12.732;2023-03-14T17:46:56;11.67;;;5.03;;
36241;SDS011;22283;42.748;12.732;2023-03-14T17:51:58;10.23;;;5.53;;
36241;SDS011;22283;42.748;12.732;2023-03-14T17:56:58;9.03;;;4.00;;
36241;SDS011;22283;42.748;12.732;2023-03-14T18:01:59;8.27;;;3.10;;
36241;SDS011;22283;42.748;12.732;2023-03-14T18:07:00;77.80;;;51.50;;
36241;SDS011;22283;42.748;12.732;2023-03-14T18:12:01;17.90;;;11.00;;
36241;SDS011;22283;42.748;12.732;2023-03-14T18:17:01;25.40;;;14.07;;
36241;SDS011;22283;42.748;12.732;2023-03-14T18:22:02;21.00;;;13.70;;
36241;SDS011;22283;42.748;12.732;2023-03-14T18:27:03;31.17;;;21.97;;
36241;SDS011;22283;42.748;12.732;2023-03-14T18:32:04;33.03;;;22.92;;
36241;SDS011;22283;42.748;12.732;2023-03-14T18:37:05;42.30;;;30.47;;
36241;SDS011;22283;42.748;12.732;2023-03-14T18:42:06;30.48;;;21.05;;
36241;SDS011;22283;42.748;12.732;2023-03-14T18:52:35;31.67;;;23.27;;
36241;SDS011;22283;42.748;12.732;2023-03-14T18:57:35;26.80;;;17.67;;
36241;SDS011;22283;42.748;12.732;2023-03-14T19:02:36;20.17;;;14.73;;
36241;SDS011;22283;42.748;12.732;2023-03-14T19:07:37;27.40;;;18.67;;
36241;SDS011;22283;42.748;12.732;2023-03-14T19:12:37;40.60;;;26.60;;
36241;SDS011;22283;42.748;12.732;2023-03-14T19:17:38;31.10;;;21.97;;
36241;SDS011;22283;42.748;12.732;2023-03-14T19:22:39;27.37;;;18.47;;
36241;SDS011;22283;42.748;12.732;2023-03-14T19:27:39;22.67;;;15.70;;
36241;SDS011;22283;42.748;12.732;2023-03-14T19:32:40;20.77;;;12.97;;
36241;SDS011;22283;42.748;12.732;2023-03-14T19:37:41;17.20;;;11.07;;
36241;SDS011;22283;42.748;12.732;2023-03-14T19:42:41;16.57;;;9.50;;
36241;SDS011;22283;42.748;12.732;2023-03-14T19:47:42;17.13;;;11.23;;
36241;SDS011;22283;42.748;12.732;2023-03-14T19:52:43;17.33;;;13.10;;
36241;SDS011;22283;42.748;12.732;2023-03-14T19:57:47;24.45;;;15.05;;
36241;SDS011;22283;42.748;12.732;2023-03-14T20:02:49;23.02;;;14.15;;
36241;SDS011;22283;42.748;12.732;2023-03-14T20:07:50;26.40;;;18.23;;
36241;SDS011;22283;42.748;12.732;2023-03-14T20:12:51;24.07;;;17.90;;
36241;SDS011;22283;42.748;12.732;2023-03-14T20:17:52;25.07;;;16.90;;
36241;SDS011;22283;42.748;12.732;2023-03-14T20:22:53;26.30;;;17.57;;
36241;SDS011;22283;42.748;12.732;2023-03-14T20:27:53;24.83;;;18.10;;
36241;SDS011;22283;42.748;12.732;2023-03-14T20:32:54;23.30;;;18.58;;
36241;SDS011;22283;42.748;12.732;2023-03-14T20:37:55;23.60;;;17.07;;
36241;SDS011;22283;42.748;12.732;2023-03-14T20:42:56;21.90;;;14.17;;
36241;SDS011;22283;42.748;12.732;2023-03-14T20:47:56;21.80;;;13.97;;
36241;SDS011;22283;42.748;12.732;2023-03-14T20:52:57;16.93;;;10.80;;
36241;SDS011;22283;42.748;12.732;2023-03-14T20:57:58;20.03;;;13.13;;
36241;SDS011;22283;42.748;12.732;2023-03-14T21:08:00;18.08;;;11.07;;
36241;SDS011;22283;42.748;12.732;2023-03-14T21:13:01;19.07;;;10.50;;
36241;SDS011;22283;42.748;12.732;2023-03-14T21:18:02;14.93;;;10.17;;
36241;SDS011;22283;42.748;12.732;2023-03-14T21:23:05;15.82;;;9.00;;
36241;SDS011;22283;42.748;12.732;2023-03-14T21:28:06;11.02;;;7.32;;
36241;SDS011;22283;42.748;12.732;2023-03-14T21:33:06;10.53;;;5.70;;
36241;SDS011;22283;42.748;12.732;2023-03-14T21:38:07;14.13;;;4.10;;
36241;SDS011;22283;42.748;12.732;2023-03-14T21:43:08;13.67;;;4.53;;
36241;SDS011;22283;42.748;12.732;2023-03-14T21:48:08;8.60;;;5.17;;
36241;SDS011;22283;42.748;12.732;2023-03-14T21:53:09;12.80;;;5.57;;
36241;SDS011;22283;42.748;12.732;2023-03-14T21:58:10;13.27;;;4.77;;
36241;SDS011;22283;42.748;12.732;2023-03-14T22:03:19;9.27;;;2.50;;
36241;SDS011;22283;42.748;12.732;2023-03-14T22:08:22;8.55;;;2.53;;
36241;SDS011;22283;42.748;12.732;2023-03-14T22:13:23;7.53;;;2.00;;
36241;SDS011;22283;42.748;12.732;2023-03-14T22:18:24;9.50;;;2.15;;
36241;SDS011;22283;42.748;12.732;2023-03-14T22:23:25;9.47;;;2.10;;
36241;SDS011;22283;42.748;12.732;2023-03-14T22:28:26;19.90;;;10.63;;
36241;SDS011;22283;42.748;12.732;2023-03-14T22:33:26;12.00;;;8.00;;
36241;SDS011;22283;42.748;12.732;2023-03-14T22:38:27;20.13;;;9.07;;
36241;SDS011;22283;42.748;12.732;2023-03-14T22:43:28;13.03;;;7.90;;
36241;SDS011;22283;42.748;12.732;2023-03-14T22:48:28;16.13;;;4.65;;
36241;SDS011;22283;42.748;12.732;2023-03-14T22:53:30;7.45;;;2.60;;
36241;SDS011;22283;42.748;12.732;2023-03-14T22:58:31;7.40;;;2.90;;
36241;SDS011;22283;42.748;12.732;2023-03-14T23:03:32;5.07;;;1.70;;
36241;SDS011;22283;42.748;12.732;2023-03-14T23:08:32;8.60;;;2.50;;
36241;SDS011;22283;42.748;12.732;2023-03-14T23:13:34;9.55;;;2.47;;
36241;SDS011;22283;42.748;12.732;2023-03-14T23:18:36;12.63;;;4.70;;
36241;SDS011;22283;42.748;12.732;2023-03-14T23:23:38;12.50;;;3.78;;
36241;SDS011;22283;42.748;12.732;2023-03-14T23:28:40;13.90;;;5.32;;
36241;SDS011;22283;42.748;12.732;2023-03-14T23:33:42;14.27;;;3.97;;
36241;SDS011;22283;42.748;12.732;2023-03-14T23:38:44;16.05;;;4.28;;
36241;SDS011;22283;42.748;12.732;2023-03-14T23:43:46;13.15;;;3.75;;
36241;SDS011;22283;42.748;12.732;2023-03-14T23:48:47;12.48;;;3.95;;
36241;SDS011;22283;42.748;12.732;2023-03-14T23:53:47;9.30;;;2.93;;
36241;SDS011;22283;42.748;12.732;2023-03-14T23:58:48;9.93;;;2.13;;
